Englewood, CO

3:00 AM MST on December 07, 2016 (GMT -0700)
| | Change Station

Elev -9999 ft 0.00 °N, 0.00 °E | Updated

Snow
Snow
12 °F
Feels Like 12 °F
N
3
Wind Variable Wind from NNE
Gusts mph

Today
High -- | Low -- °F
--% Chance of Precip.
Yesterday
High -- | Low -- °F
Precip. -- in
Pressure 30.08 in
Visibility 10.0 miles
Clouds Mostly Cloudy 3600 ft
Overcast 11000 ft
Dew Point 10 °F
Humidity 91%
Rainfall --
Snow Depth Not available.
7:07 AM 4:35 PM
Waxing Crescent, 51% visible
METAR KAPA 070953Z 00000KT 10SM BKN036 OVC110 M11/M13 A2989 RMK AO2 SNE08 SLP185 P0000 T11061128
Pressure 30.08 in
Visibility 10.0 miles
Clouds Mostly Cloudy 3600 ft
Overcast 11000 ft
Dew Point 10 °F
Humidity 91%
Rainfall --
Snow Depth Not available.
7:07 AM 4:35 PM
Waxing Crescent, 51% visible
METAR KAPA 070953Z 00000KT 10SM BKN036 OVC110 M11/M13 A2989 RMK AO2 SNE08 SLP185 P0000 T11061128

10-Day Weather Forecast

Almanac

Astronomy

Dec. 07, 2016 Rise Set
Actual Time
Civil Twilight
Nautical Twilight
Astronomical Twilight
Moon
Length of Visible Light
Length of Day
Tomorrow will be .
, % of the Moon is Illuminated

Today's Extremes

State Highs State Lows

Community

WunderPhotos

Upload Photos

1,956,111 photos uploaded!

WunderBlog® & News

Nearby

Air Quality

  Air Quality AQ Index Pollutant
Not available.

Snow Depth

Station Depth Elevation

Earthquake Activity

City Distance Mag. Time & Date
Minimum magnitude displayed is 2.5.

Coastal Water Temperatures

Place Temperature

Stations

Nearby Weather Stations

Station Location Temp. Windchill Dew Point Humidity Wind Precip. Elev Updated Type
                   

Watches & Warnings

Winter Weather Advisory
Issued: 5:23 PM MST Dec. 6, 2016 – National Weather Service

... Winter Weather Advisory remains in effect until noon MST
Wednesday...

* timing... light snow will start around rush hour and increase
in intensity through the evening and continue through
Wednesday afternoon.

* Snow accumulations... snowfall amounts of 2 to 5 inches will be
possible with higher amounts west of I-25.

* Impacts... roads will become snowpacked and slippery. Travel will
be hazardous tonight and Wednesday morning due to snowpacked
roads and reduced visibility.

Precautionary/preparedness actions...

A Winter Weather Advisory for snow means that periods of snow
will cause primarily travel difficulties. Be prepared for snow
covered roads and limited visibilities... and use caution while
driving.